Time;durP1;ratioP1;P1;durP2;ratioP2;P2;SDS_P1;SDS_P2;PMS_P1;PMS_P2;Temp;Humidity;BMP_temperature;BMP_pressure;BME280_temperature;BME280_humidity;BME280_pressure;Samples;Min_cycle;Max_cycle;Signal;HPM_P1;HPM_P2
2024/05/03 00:00:55;;;;;;;1.30;0.60;;;;;;;;;;5524148;26;20362;-78
2024/05/03 00:03:21;;;;;;;1.02;0.60;;;;;;;;;;5524264;26;20320;-78
2024/05/03 00:05:47;;;;;;;1.20;0.52;;;;;;;;;;5523979;26;20324;-78
2024/05/03 00:08:13;;;;;;;1.00;0.35;;;;;;;;;;5524536;26;20417;-78
2024/05/03 00:10:39;;;;;;;0.73;0.30;;;;;;;;;;5523903;26;20332;-78
2024/05/03 00:13:05;;;;;;;3.60;0.50;;;;;;;;;;5524330;26;20364;-78
2024/05/03 00:15:31;;;;;;;0.37;0.37;;;;;;;;;;5523865;26;20328;-78
2024/05/03 00:17:57;;;;;;;1.20;0.40;;;;;;;;;;5523674;26;20328;-78
2024/05/03 00:20:23;;;;;;;4.50;0.47;;;;;;;;;;5523341;26;20367;-77
2024/05/03 00:22:49;;;;;;;1.20;0.40;;;;;;;;;;5522820;26;20328;-77
2024/05/03 00:25:15;;;;;;;2.50;1.20;;;;;;;;;;5523448;26;20316;-76
2024/05/03 00:27:41;;;;;;;1.40;0.90;;;;;;;;;;5522798;26;20339;-76
2024/05/03 00:30:07;;;;;;;0.60;0.50;;;;;;;;;;5523545;26;20455;-79
2024/05/03 00:32:33;;;;;;;0.90;0.40;;;;;;;;;;5523881;26;20725;-79
2024/05/03 00:34:59;;;;;;;0.70;0.70;;;;;;;;;;5523465;26;20462;-78
2024/05/03 00:37:25;;;;;;;0.82;0.50;;;;;;;;;;5507898;26;20322;-79
2024/05/03 00:39:51;;;;;;;0.40;0.40;;;;;;;;;;5501712;26;20331;-76
2024/05/03 00:42:17;;;;;;;0.65;0.65;;;;;;;;;;5526225;26;20371;-79
2024/05/03 00:44:43;;;;;;;0.52;0.40;;;;;;;;;;5527163;26;20331;-79
2024/05/03 00:47:09;;;;;;;0.40;0.40;;;;;;;;;;5527466;26;20323;-79
2024/05/03 00:49:35;;;;;;;0.60;0.40;;;;;;;;;;5526907;26;20361;-79
2024/05/03 00:52:02;;;;;;;1.10;0.30;;;;;;;;;;5502153;26;20868;-79
2024/05/03 00:54:29;;;;;;;0.23;0.23;;;;;;;;;;5528499;26;20315;-79
2024/05/03 00:56:55;;;;;;;0.70;0.38;;;;;;;;;;5528291;26;20324;-79
2024/05/03 00:59:22;;;;;;;0.30;0.30;;;;;;;;;;5527737;26;20320;-79
2024/05/03 01:01:48;;;;;;;0.80;0.30;;;;;;;;;;5528219;26;20320;-79
2024/05/03 01:04:14;;;;;;;0.30;0.30;;;;;;;;;;5527416;26;20367;-79
2024/05/03 01:06:40;;;;;;;0.20;0.20;;;;;;;;;;5528085;26;20437;-79
2024/05/03 01:09:06;;;;;;;0.40;0.20;;;;;;;;;;5527546;26;20324;-79
2024/05/03 01:11:32;;;;;;;0.13;0.13;;;;;;;;;;5527779;26;20371;-79
2024/05/03 01:13:58;;;;;;;0.50;0.22;;;;;;;;;;5527195;26;20327;-77
2024/05/03 01:16:25;;;;;;;1.23;0.40;;;;;;;;;;5526334;26;20943;-79
2024/05/03 01:18:51;;;;;;;0.40;0.20;;;;;;;;;;5526830;26;20316;-77
2024/05/03 01:21:17;;;;;;;0.30;0.30;;;;;;;;;;5525599;26;20691;-77
2024/05/03 01:23:43;;;;;;;0.35;0.30;;;;;;;;;;5525758;26;20424;-77
2024/05/03 01:26:09;;;;;;;1.30;0.30;;;;;;;;;;5525432;26;20761;-77
2024/05/03 01:28:35;;;;;;;0.30;0.30;;;;;;;;;;5493042;26;20319;-77
2024/05/03 01:31:01;;;;;;;0.20;0.20;;;;;;;;;;5519159;26;20324;-77
2024/05/03 01:33:27;;;;;;;0.20;0.20;;;;;;;;;;5525661;26;20324;-77
2024/05/03 01:35:53;;;;;;;0.35;0.35;;;;;;;;;;5525477;26;20680;-77
2024/05/03 01:38:19;;;;;;;0.20;0.20;;;;;;;;;;5509463;26;20328;-77
2024/05/03 01:40:45;;;;;;;0.30;0.30;;;;;;;;;;5525587;26;20312;-77
2024/05/03 01:43:11;;;;;;;0.20;0.20;;;;;;;;;;5525304;26;20359;-77
2024/05/03 01:45:37;;;;;;;0.30;0.30;;;;;;;;;;5525227;26;20408;-77
2024/05/03 01:48:03;;;;;;;0.43;0.30;;;;;;;;;;5525229;26;20727;-77
2024/05/03 01:50:30;;;;;;;0.30;0.30;;;;;;;;;;5524438;26;20316;-77
2024/05/03 01:52:56;;;;;;;0.30;0.30;;;;;;;;;;5525043;26;20853;-77
2024/05/03 01:55:22;;;;;;;0.30;0.30;;;;;;;;;;5524838;26;20456;-77
2024/05/03 01:57:48;;;;;;;0.40;0.30;;;;;;;;;;5525176;26;20327;-77
2024/05/03 02:00:14;;;;;;;0.90;0.30;;;;;;;;;;5524921;26;20820;-77
2024/05/03 02:02:40;;;;;;;0.30;0.30;;;;;;;;;;5525176;26;20315;-77
2024/05/03 02:05:06;;;;;;;0.22;0.22;;;;;;;;;;5524971;26;20324;-78
2024/05/03 02:07:32;;;;;;;1.40;0.40;;;;;;;;;;5525082;26;20836;-78
2024/05/03 02:09:58;;;;;;;0.28;0.28;;;;;;;;;;5524929;26;20361;-78
2024/05/03 02:12:24;;;;;;;0.40;0.30;;;;;;;;;;5524771;26;20808;-77
2024/05/03 02:14:50;;;;;;;0.20;0.20;;;;;;;;;;5524848;26;20323;-77
2024/05/03 02:17:16;;;;;;;1.02;0.30;;;;;;;;;;5524460;26;20415;-77
2024/05/03 02:19:42;;;;;;;0.20;0.20;;;;;;;;;;5524622;26;20319;-77
2024/05/03 02:22:08;;;;;;;0.20;0.20;;;;;;;;;;5524483;26;20421;-77
2024/05/03 02:24:34;;;;;;;1.00;0.20;;;;;;;;;;5524473;26;20328;-77
2024/05/03 02:27:00;;;;;;;0.93;0.25;;;;;;;;;;5524394;26;20335;-77
2024/05/03 02:29:26;;;;;;;0.40;0.13;;;;;;;;;;5524063;26;20368;-77
2024/05/03 02:31:52;;;;;;;0.30;0.20;;;;;;;;;;5524217;26;20364;-77
2024/05/03 02:34:18;;;;;;;0.25;0.20;;;;;;;;;;5523968;26;20849;-77
2024/05/03 02:36:44;;;;;;;0.22;0.22;;;;;;;;;;5519161;26;20334;-77
2024/05/03 02:39:10;;;;;;;1.10;0.20;;;;;;;;;;5513878;26;20392;-77
2024/05/03 02:41:36;;;;;;;0.20;0.20;;;;;;;;;;5524450;26;20324;-77
2024/05/03 02:44:02;;;;;;;0.20;0.20;;;;;;;;;;5524227;26;20777;-77
2024/05/03 02:46:28;;;;;;;0.20;0.20;;;;;;;;;;5523951;26;20331;-77
2024/05/03 02:48:54;;;;;;;0.30;0.20;;;;;;;;;;5524025;26;20693;-77
2024/05/03 02:51:20;;;;;;;0.60;0.28;;;;;;;;;;5523422;26;20441;-77
2024/05/03 02:53:46;;;;;;;0.20;0.20;;;;;;;;;;5523802;26;20324;-77
2024/05/03 02:56:12;;;;;;;0.40;0.30;;;;;;;;;;5524249;26;20708;-77
2024/05/03 02:58:38;;;;;;;0.30;0.20;;;;;;;;;;5523918;26;20343;-77
2024/05/03 03:01:05;;;;;;;0.20;0.20;;;;;;;;;;5522861;26;20332;-77
2024/05/03 03:03:34;;;;;;;0.40;0.20;;;;;;;;;;5523375;26;20927;-78
2024/05/03 03:06:03;;;;;;;0.20;0.20;;;;;;;;;;5525318;26;20331;-79
2024/05/03 03:08:29;;;;;;;0.20;0.20;;;;;;;;;;5525300;26;20328;-79
2024/05/03 03:10:56;;;;;;;0.10;0.10;;;;;;;;;;5525360;26;20857;-80
2024/05/03 03:13:22;;;;;;;0.20;0.20;;;;;;;;;;5493189;26;20335;-80
2024/05/03 03:15:48;;;;;;;0.10;0.10;;;;;;;;;;5525780;26;20389;-78
2024/05/03 03:18:14;;;;;;;0.10;0.10;;;;;;;;;;5523660;26;20320;-77
2024/05/03 03:20:40;;;;;;;0.20;0.20;;;;;;;;;;5523570;26;20809;-77
2024/05/03 03:23:06;;;;;;;0.20;0.20;;;;;;;;;;5523510;26;20316;-77
2024/05/03 03:25:32;;;;;;;0.40;0.20;;;;;;;;;;5523282;26;20672;-77
2024/05/03 03:27:58;;;;;;;0.20;0.20;;;;;;;;;;5517716;26;20352;-77
2024/05/03 03:30:25;;;;;;;0.10;0.10;;;;;;;;;;5524641;26;20319;-79
2024/05/03 03:32:51;;;;;;;0.10;0.10;;;;;;;;;;5524940;26;20385;-79
2024/05/03 03:35:17;;;;;;;0.30;0.30;;;;;;;;;;5523899;26;20324;-77
2024/05/03 03:37:43;;;;;;;0.20;0.20;;;;;;;;;;5507306;26;20729;-77
2024/05/03 03:40:10;;;;;;;0.10;0.10;;;;;;;;;;5490741;26;20323;-77
2024/05/03 03:42:36;;;;;;;0.20;0.20;;;;;;;;;;5523306;26;20501;-77
2024/05/03 03:45:03;;;;;;;0.13;0.10;;;;;;;;;;5523402;26;20408;-77
2024/05/03 03:47:31;;;;;;;0.20;0.20;;;;;;;;;;5523586;26;20316;-77
2024/05/03 03:49:57;;;;;;;0.20;0.20;;;;;;;;;;5522812;26;20408;-77
2024/05/03 03:52:23;;;;;;;0.20;0.20;;;;;;;;;;5523188;26;20323;-77
2024/05/03 03:54:49;;;;;;;0.20;0.20;;;;;;;;;;5523119;26;20697;-77
2024/05/03 03:57:15;;;;;;;0.20;0.20;;;;;;;;;;5523195;26;20359;-77
2024/05/03 03:59:44;;;;;;;0.20;0.10;;;;;;;;;;5522952;26;20327;-77
2024/05/03 04:02:10;;;;;;;1.20;0.20;;;;;;;;;;5523251;26;20452;-77
2024/05/03 04:04:36;;;;;;;0.45;0.20;;;;;;;;;;5523191;26;20824;-77
2024/05/03 04:07:02;;;;;;;0.40;0.30;;;;;;;;;;5522857;26;20332;-77
2024/05/03 04:09:28;;;;;;;0.30;0.20;;;;;;;;;;5522849;26;20750;-77
2024/05/03 04:11:54;;;;;;;0.77;0.30;;;;;;;;;;5523396;26;20334;-79
2024/05/03 04:14:20;;;;;;;0.40;0.20;;;;;;;;;;5530473;25;20676;-77
2024/05/03 04:16:45;;;;;;;0.20;0.20;;;;;;;;;;5530727;26;20327;-77
2024/05/03 04:19:12;;;;;;;0.40;0.40;;;;;;;;;;5530601;26;20360;-77
2024/05/03 04:21:38;;;;;;;0.32;0.30;;;;;;;;;;5531012;26;20442;-77
2024/05/03 04:24:04;;;;;;;0.70;0.30;;;;;;;;;;5531252;26;20323;-78
2024/05/03 04:26:30;;;;;;;0.40;0.40;;;;;;;;;;5530560;26;20331;-78
2024/05/03 04:28:56;;;;;;;0.70;0.50;;;;;;;;;;5531067;26;20929;-78
2024/05/03 04:31:22;;;;;;;0.60;0.30;;;;;;;;;;5530448;26;20367;-78
2024/05/03 04:33:48;;;;;;;0.50;0.30;;;;;;;;;;5530465;26;20402;-78
2024/05/03 04:36:15;;;;;;;0.90;0.50;;;;;;;;;;5530271;26;20335;-78
2024/05/03 04:38:41;;;;;;;0.50;0.50;;;;;;;;;;5530808;26;20921;-78
2024/05/03 04:41:07;;;;;;;1.88;0.60;;;;;;;;;;5530309;26;20677;-78
2024/05/03 04:43:32;;;;;;;1.20;0.45;;;;;;;;;;5530668;26;20362;-78
2024/05/03 04:45:58;;;;;;;1.50;0.53;;;;;;;;;;5530044;26;20731;-78
2024/05/03 04:48:24;;;;;;;1.50;0.73;;;;;;;;;;5530302;26;20319;-78
2024/05/03 04:50:51;;;;;;;2.03;0.60;;;;;;;;;;5530377;26;20366;-78
2024/05/03 04:53:17;;;;;;;0.70;0.60;;;;;;;;;;5530491;26;20320;-78
2024/05/03 04:55:43;;;;;;;2.35;0.60;;;;;;;;;;5529492;26;20316;-78
2024/05/03 04:58:09;;;;;;;2.72;0.82;;;;;;;;;;5530266;26;20323;-78
2024/05/03 05:00:35;;;;;;;1.30;0.70;;;;;;;;;;5529615;26;20665;-78
2024/05/03 05:03:01;;;;;;;2.13;0.70;;;;;;;;;;5529891;26;20339;-77
2024/05/03 05:05:27;;;;;;;2.15;0.88;;;;;;;;;;5529905;26;20323;-78
2024/05/03 05:07:53;;;;;;;1.92;0.80;;;;;;;;;;5530165;26;20327;-77
2024/05/03 05:10:19;;;;;;;2.17;0.90;;;;;;;;;;5530279;26;20331;-78
2024/05/03 05:12:46;;;;;;;1.30;0.60;;;;;;;;;;5531113;26;20319;-78
2024/05/03 05:15:11;;;;;;;2.22;0.80;;;;;;;;;;5530508;26;20328;-77
2024/05/03 05:17:38;;;;;;;1.20;0.63;;;;;;;;;;5529725;26;20429;-78
2024/05/03 05:20:04;;;;;;;2.00;0.80;;;;;;;;;;5523382;26;20323;-78
2024/05/03 05:22:30;;;;;;;1.45;0.60;;;;;;;;;;5531672;26;20805;-78
2024/05/03 05:24:56;;;;;;;1.10;0.53;;;;;;;;;;5527406;26;20905;-78
2024/05/03 05:27:22;;;;;;;1.13;0.60;;;;;;;;;;5527493;26;20691;-79
2024/05/03 05:29:47;;;;;;;0.98;0.50;;;;;;;;;;5526503;26;20417;-79
2024/05/03 05:32:13;;;;;;;1.35;0.80;;;;;;;;;;5526724;26;20328;-79
2024/05/03 05:34:39;;;;;;;1.20;0.60;;;;;;;;;;5526552;26;20320;-79
2024/05/03 05:37:05;;;;;;;2.05;0.60;;;;;;;;;;5516390;26;20362;-78
2024/05/03 05:39:32;;;;;;;4.18;0.60;;;;;;;;;;5522379;26;20379;-79
2024/05/03 05:41:58;;;;;;;0.68;0.60;;;;;;;;;;5527181;26;20320;-78
2024/05/03 05:44:24;;;;;;;1.15;0.50;;;;;;;;;;5526546;26;20794;-78
2024/05/03 05:46:50;;;;;;;1.50;0.60;;;;;;;;;;5527023;26;20396;-78
2024/05/03 05:49:16;;;;;;;1.00;0.73;;;;;;;;;;5527700;26;20316;-78
2024/05/03 05:51:42;;;;;;;1.50;0.60;;;;;;;;;;5527478;26;20362;-79
2024/05/03 05:54:11;;;;;;;0.90;0.50;;;;;;;;;;5527580;26;20316;-78
2024/05/03 05:56:37;;;;;;;1.52;0.60;;;;;;;;;;5527248;26;20421;-78
2024/05/03 05:59:03;;;;;;;0.93;0.55;;;;;;;;;;5526728;26;20718;-78
2024/05/03 06:01:30;;;;;;;1.95;0.70;;;;;;;;;;5527120;26;20332;-78
2024/05/03 06:04:00;;;;;;;1.42;0.68;;;;;;;;;;5526948;26;20324;-78
2024/05/03 06:06:27;;;;;;;0.85;0.55;;;;;;;;;;5527053;26;20728;-78
2024/05/03 06:08:53;;;;;;;3.25;0.70;;;;;;;;;;5526300;26;20449;-78
2024/05/03 06:11:19;;;;;;;0.80;0.60;;;;;;;;;;5526038;26;20328;-79
2024/05/03 06:13:45;;;;;;;1.40;0.50;;;;;;;;;;5525132;26;20827;-79
2024/05/03 06:16:11;;;;;;;1.92;0.65;;;;;;;;;;5525167;26;20324;-79
2024/05/03 06:18:37;;;;;;;1.25;0.60;;;;;;;;;;5525503;26;20358;-79
2024/05/03 06:21:03;;;;;;;1.35;0.50;;;;;;;;;;5525412;26;20360;-79
2024/05/03 06:23:29;;;;;;;1.37;0.60;;;;;;;;;;5525866;26;20499;-79
2024/05/03 06:25:55;;;;;;;2.00;0.60;;;;;;;;;;5525129;26;20327;-79
2024/05/03 06:28:21;;;;;;;0.77;0.57;;;;;;;;;;5525006;26;20328;-79
2024/05/03 06:30:47;;;;;;;1.00;0.50;;;;;;;;;;5525114;26;20736;-80
2024/05/03 06:33:13;;;;;;;1.00;0.43;;;;;;;;;;5525464;26;20320;-79
2024/05/03 06:35:39;;;;;;;1.00;0.50;;;;;;;;;;5524573;26;20356;-79
2024/05/03 06:38:05;;;;;;;0.98;0.60;;;;;;;;;;5508575;26;20363;-79
2024/05/03 06:40:31;;;;;;;1.27;0.50;;;;;;;;;;5524919;26;20359;-79
2024/05/03 06:43:03;;;;;;;1.33;0.60;;;;;;;;;;5524607;26;20327;-79
2024/05/03 06:45:29;;;;;;;1.58;0.68;;;;;;;;;;5525173;26;20332;-79
2024/05/03 06:47:55;;;;;;;1.67;0.70;;;;;;;;;;5524702;26;20320;-79
2024/05/03 06:50:21;;;;;;;2.92;0.80;;;;;;;;;;5524827;26;20323;-79
2024/05/03 06:52:47;;;;;;;2.08;0.60;;;;;;;;;;5525076;26;20328;-79
2024/05/03 06:55:13;;;;;;;1.90;0.85;;;;;;;;;;5524364;26;20388;-79
2024/05/03 06:57:39;;;;;;;1.25;0.70;;;;;;;;;;5524519;26;20364;-79
2024/05/03 07:00:05;;;;;;;2.05;0.63;;;;;;;;;;5524404;26;20817;-79
2024/05/03 07:02:31;;;;;;;1.73;0.70;;;;;;;;;;5523747;26;20417;-79
2024/05/03 07:04:57;;;;;;;2.03;0.80;;;;;;;;;;5524355;26;20331;-79
2024/05/03 07:07:23;;;;;;;1.42;0.70;;;;;;;;;;5524190;26;20327;-79
2024/05/03 07:09:49;;;;;;;2.53;0.80;;;;;;;;;;5524022;26;20401;-79
2024/05/03 07:12:15;;;;;;;1.88;0.70;;;;;;;;;;5524241;26;22639;-79
2024/05/03 07:14:41;;;;;;;2.55;0.95;;;;;;;;;;5524231;26;20431;-79
2024/05/03 07:17:07;;;;;;;2.38;0.70;;;;;;;;;;5524257;26;20319;-79
2024/05/03 07:19:33;;;;;;;2.50;1.00;;;;;;;;;;5523908;26;20913;-79
2024/05/03 07:21:59;;;;;;;1.98;0.80;;;;;;;;;;5524436;26;20359;-79
2024/05/03 07:24:25;;;;;;;2.05;0.90;;;;;;;;;;5523973;26;20831;-79
2024/05/03 07:26:52;;;;;;;2.72;0.90;;;;;;;;;;5524115;26;21206;-79
2024/05/03 07:29:19;;;;;;;1.58;0.77;;;;;;;;;;5486592;26;20743;-79
2024/05/03 07:31:45;;;;;;;1.42;0.75;;;;;;;;;;5523899;26;20328;-79
2024/05/03 07:34:11;;;;;;;1.92;0.75;;;;;;;;;;5523676;26;20389;-79
2024/05/03 07:36:39;;;;;;;2.78;0.80;;;;;;;;;;5520198;26;20665;-79
2024/05/03 07:39:07;;;;;;;1.60;0.80;;;;;;;;;;5512346;26;20348;-79
2024/05/03 07:41:33;;;;;;;1.80;0.77;;;;;;;;;;5523823;26;20315;-79
2024/05/03 07:43:59;;;;;;;1.38;0.70;;;;;;;;;;5524202;26;20316;-79
2024/05/03 07:46:27;;;;;;;2.13;0.80;;;;;;;;;;5523873;26;20367;-79
2024/05/03 07:48:53;;;;;;;2.22;0.80;;;;;;;;;;5522685;26;20323;-79
2024/05/03 07:51:19;;;;;;;2.10;1.00;;;;;;;;;;5523840;26;20417;-79
2024/05/03 07:53:46;;;;;;;3.40;0.75;;;;;;;;;;5523539;26;20323;-79
2024/05/03 07:56:12;;;;;;;2.15;0.90;;;;;;;;;;5523313;26;20877;-79
2024/05/03 07:58:38;;;;;;;1.00;0.60;;;;;;;;;;5523379;26;20320;-79
2024/05/03 08:01:04;;;;;;;2.10;0.60;;;;;;;;;;5523589;26;20359;-79
2024/05/03 08:03:30;;;;;;;1.67;0.60;;;;;;;;;;5523362;26;21128;-79
2024/05/03 08:05:56;;;;;;;1.50;0.60;;;;;;;;;;5523531;26;20393;-79
2024/05/03 08:08:22;;;;;;;3.70;0.80;;;;;;;;;;5523586;26;20385;-79
2024/05/03 08:10:48;;;;;;;2.80;0.70;;;;;;;;;;5523471;26;20308;-79
2024/05/03 08:13:14;;;;;;;1.45;0.70;;;;;;;;;;5523496;26;20372;-79
2024/05/03 08:15:42;;;;;;;1.33;0.73;;;;;;;;;;5522947;26;21080;-79
2024/05/03 08:18:08;;;;;;;1.80;0.70;;;;;;;;;;5523259;26;20355;-79
2024/05/03 08:20:34;;;;;;;1.92;0.85;;;;;;;;;;5523223;26;20413;-79
2024/05/03 08:23:00;;;;;;;3.17;0.90;;;;;;;;;;5523200;26;20339;-79
2024/05/03 08:25:26;;;;;;;2.30;0.80;;;;;;;;;;5523083;26;20324;-79
2024/05/03 08:27:52;;;;;;;2.17;1.00;;;;;;;;;;5522784;26;20905;-79
2024/05/03 08:30:18;;;;;;;2.00;0.90;;;;;;;;;;5523373;26;20359;-79
2024/05/03 08:32:44;;;;;;;2.30;0.65;;;;;;;;;;5522658;26;20316;-79
2024/05/03 08:35:10;;;;;;;2.10;0.70;;;;;;;;;;5523095;26;20502;-79
2024/05/03 08:37:36;;;;;;;3.95;0.77;;;;;;;;;;5507020;26;20366;-79
2024/05/03 08:40:02;;;;;;;1.88;0.70;;;;;;;;;;5523104;26;20320;-79
2024/05/03 08:42:38;;;;;;;1.30;0.53;;;;;;;;;;5522915;26;20319;-79
2024/05/03 08:45:05;;;;;;;1.67;0.68;;;;;;;;;;5498521;26;20316;-79
2024/05/03 08:47:37;;;;;;;2.35;0.70;;;;;;;;;;5522916;26;20520;-79
2024/05/03 08:50:04;;;;;;;1.73;0.60;;;;;;;;;;5523012;26;20444;-79
2024/05/03 08:52:59;;;;;;;1.48;0.65;;;;;;;;;;5522622;26;20808;-79
2024/05/03 08:55:25;;;;;;;2.00;0.57;;;;;;;;;;5517184;26;20359;-79
2024/05/03 08:57:51;;;;;;;1.20;0.60;;;;;;;;;;5522497;26;20405;-79
2024/05/03 09:00:18;;;;;;;1.98;0.70;;;;;;;;;;5523705;26;20319;-79
2024/05/03 09:02:44;;;;;;;1.30;0.60;;;;;;;;;;5526076;26;20352;-79
2024/05/03 09:05:11;;;;;;;1.70;0.60;;;;;;;;;;5526004;26;20669;-79
2024/05/03 09:07:45;;;;;;;1.80;0.70;;;;;;;;;;5525595;26;20312;-79
2024/05/03 09:10:11;;;;;;;1.52;0.50;;;;;;;;;;5526381;26;20771;-79
2024/05/03 09:12:37;;;;;;;2.25;0.60;;;;;;;;;;5525547;26;20433;-79
2024/05/03 09:15:05;;;;;;;1.98;0.60;;;;;;;;;;5525863;26;20320;-79
2024/05/03 09:17:34;;;;;;;2.40;0.80;;;;;;;;;;5523773;26;20379;-79
2024/05/03 09:20:00;;;;;;;1.58;0.70;;;;;;;;;;5521771;26;20435;-79
2024/05/03 09:22:26;;;;;;;2.05;0.80;;;;;;;;;;5525534;26;20415;-79
2024/05/03 09:24:52;;;;;;;2.60;0.70;;;;;;;;;;5525652;26;20340;-79
2024/05/03 09:27:22;;;;;;;4.10;0.80;;;;;;;;;;5525711;26;20320;-79
2024/05/03 09:29:48;;;;;;;1.83;0.95;;;;;;;;;;5525983;26;20797;-79
2024/05/03 09:32:15;;;;;;;1.40;0.63;;;;;;;;;;5525702;26;20358;-79
2024/05/03 09:34:41;;;;;;;2.70;0.70;;;;;;;;;;5525535;26;20817;-79
2024/05/03 09:37:08;;;;;;;2.72;0.63;;;;;;;;;;5516642;26;20318;-79
2024/05/03 09:39:38;;;;;;;1.67;0.80;;;;;;;;;;5522237;26;20352;-79
2024/05/03 09:42:04;;;;;;;1.02;0.60;;;;;;;;;;5526734;26;20355;-79
2024/05/03 09:44:30;;;;;;;2.60;0.80;;;;;;;;;;5521793;26;20328;-79
2024/05/03 09:46:59;;;;;;;1.97;0.60;;;;;;;;;;5525927;26;20479;-79
2024/05/03 09:49:30;;;;;;;1.35;0.80;;;;;;;;;;5525219;26;20327;-79
2024/05/03 09:52:02;;;;;;;2.25;0.60;;;;;;;;;;5525263;26;20350;-79
2024/05/03 09:54:34;;;;;;;1.97;0.60;;;;;;;;;;5525451;26;20324;-79
2024/05/03 09:57:03;;;;;;;1.20;0.70;;;;;;;;;;5525420;26;20437;-79
2024/05/03 09:59:29;;;;;;;2.13;0.90;;;;;;;;;;5525476;26;20355;-79
2024/05/03 10:01:56;;;;;;;2.83;0.82;;;;;;;;;;5525358;26;20407;-79
2024/05/03 10:04:22;;;;;;;1.80;0.90;;;;;;;;;;5527188;26;20376;-79
2024/05/03 10:06:49;;;;;;;2.60;0.80;;;;;;;;;;5529791;26;20431;-79
2024/05/03 10:09:16;;;;;;;3.05;0.75;;;;;;;;;;5524611;26;20323;-79
2024/05/03 10:11:42;;;;;;;2.72;0.90;;;;;;;;;;5524243;26;20323;-79
2024/05/03 10:14:09;;;;;;;2.25;0.90;;;;;;;;;;5525191;26;20327;-79
2024/05/03 10:16:35;;;;;;;2.70;0.83;;;;;;;;;;5525155;25;20327;-79
2024/05/03 10:19:01;;;;;;;2.17;0.73;;;;;;;;;;5525048;26;20834;-79
2024/05/03 10:21:40;;;;;;;2.05;0.93;;;;;;;;;;5524884;26;20405;-79
2024/05/03 10:24:06;;;;;;;2.97;0.80;;;;;;;;;;5524988;26;20352;-79
2024/05/03 10:26:37;;;;;;;0.95;0.60;;;;;;;;;;5525050;26;20339;-79
2024/05/03 10:29:04;;;;;;;1.83;0.90;;;;;;;;;;5525388;25;20319;-79
2024/05/03 10:31:30;;;;;;;1.90;0.80;;;;;;;;;;5524943;26;20316;-79
2024/05/03 10:33:56;;;;;;;1.05;0.60;;;;;;;;;;5524969;26;20748;-79
2024/05/03 10:36:25;;;;;;;1.07;0.63;;;;;;;;;;5524761;26;20324;-79
2024/05/03 10:38:52;;;;;;;2.60;0.82;;;;;;;;;;5524803;26;20332;-79
2024/05/03 10:41:18;;;;;;;2.30;0.90;;;;;;;;;;5524676;26;20464;-79
2024/05/03 10:43:44;;;;;;;0.90;0.70;;;;;;;;;;5524557;26;20324;-79
2024/05/03 10:46:10;;;;;;;1.63;0.80;;;;;;;;;;5524583;26;20942;-79
2024/05/03 10:48:37;;;;;;;1.73;0.70;;;;;;;;;;5524394;26;20319;-79
2024/05/03 10:51:04;;;;;;;2.67;1.10;;;;;;;;;;5524951;26;20327;-79
2024/05/03 10:53:30;;;;;;;1.00;0.60;;;;;;;;;;5524825;26;20328;-79
2024/05/03 10:55:57;;;;;;;1.77;0.60;;;;;;;;;;5525513;26;20315;-77
2024/05/03 10:58:23;;;;;;;2.17;0.70;;;;;;;;;;5524168;26;20327;-78
2024/05/03 11:00:49;;;;;;;1.02;0.55;;;;;;;;;;5523808;26;20360;-78
2024/05/03 11:03:15;;;;;;;1.92;0.68;;;;;;;;;;5523160;26;20390;-78
2024/05/03 11:05:41;;;;;;;0.60;0.60;;;;;;;;;;5514687;26;20327;-78
2024/05/03 11:08:08;;;;;;;1.90;0.70;;;;;;;;;;5523967;25;20331;-78
2024/05/03 11:10:34;;;;;;;1.10;0.70;;;;;;;;;;5523848;26;20331;-78
2024/05/03 11:13:01;;;;;;;3.45;0.85;;;;;;;;;;5492533;26;20330;-78
2024/05/03 11:15:27;;;;;;;1.50;0.70;;;;;;;;;;5524083;26;20428;-78
2024/05/03 11:17:53;;;;;;;1.80;0.80;;;;;;;;;;5524304;25;20352;-78
2024/05/03 11:20:19;;;;;;;1.80;0.93;;;;;;;;;;5524425;26;20827;-78
2024/05/03 11:22:45;;;;;;;1.60;0.87;;;;;;;;;;5522579;26;20360;-78
2024/05/03 11:25:11;;;;;;;1.65;0.90;;;;;;;;;;5524116;26;20328;-78
2024/05/03 11:27:46;;;;;;;1.40;0.75;;;;;;;;;;5523560;26;20368;-78
2024/05/03 11:30:19;;;;;;;1.42;0.93;;;;;;;;;;5523587;26;20686;-78
2024/05/03 11:32:45;;;;;;;2.13;0.90;;;;;;;;;;5523376;26;20323;-78
2024/05/03 11:35:12;;;;;;;1.80;0.90;;;;;;;;;;5523627;26;20368;-78
2024/05/03 11:37:38;;;;;;;1.35;0.80;;;;;;;;;;5523825;25;20335;-78
2024/05/03 11:40:05;;;;;;;1.90;0.70;;;;;;;;;;5507899;26;20371;-78
2024/05/03 11:42:31;;;;;;;2.13;0.88;;;;;;;;;;5523332;26;20327;-78
2024/05/03 11:44:57;;;;;;;1.07;0.90;;;;;;;;;;5523561;26;20427;-78
2024/05/03 11:47:23;;;;;;;1.15;0.80;;;;;;;;;;5523868;26;20332;-78
2024/05/03 11:49:49;;;;;;;2.08;0.95;;;;;;;;;;5523774;26;20327;-78
2024/05/03 11:52:15;;;;;;;2.28;0.75;;;;;;;;;;5523899;26;20708;-78
2024/05/03 11:54:41;;;;;;;1.30;0.70;;;;;;;;;;5523413;26;20339;-78
2024/05/03 11:57:07;;;;;;;2.00;0.90;;;;;;;;;;5523580;26;20375;-78
2024/05/03 11:59:33;;;;;;;1.88;0.90;;;;;;;;;;5522913;26;20343;-78
2024/05/03 12:01:59;;;;;;;2.20;0.80;;;;;;;;;;5523164;26;20734;-78
2024/05/03 12:04:25;;;;;;;1.77;0.90;;;;;;;;;;5523146;26;20429;-78
2024/05/03 12:06:51;;;;;;;1.80;1.30;;;;;;;;;;5523424;26;20856;-78
2024/05/03 12:09:17;;;;;;;1.65;1.30;;;;;;;;;;5523024;26;20352;-78
2024/05/03 12:11:43;;;;;;;2.17;0.90;;;;;;;;;;5523267;26;20319;-78
2024/05/03 12:14:09;;;;;;;1.33;0.87;;;;;;;;;;5522927;26;20328;-78
2024/05/03 12:16:35;;;;;;;1.95;0.90;;;;;;;;;;5522866;26;20363;-78
2024/05/03 12:19:01;;;;;;;0.90;0.80;;;;;;;;;;5523479;26;20319;-78
2024/05/03 12:21:27;;;;;;;2.58;1.00;;;;;;;;;;5522771;26;20363;-78
2024/05/03 12:23:53;;;;;;;1.23;0.80;;;;;;;;;;5522641;26;20395;-78
2024/05/03 12:26:19;;;;;;;1.30;0.90;;;;;;;;;;5522636;26;20320;-78
2024/05/03 12:28:45;;;;;;;1.02;0.90;;;;;;;;;;5522652;26;20331;-78
2024/05/03 12:31:12;;;;;;;2.00;0.93;;;;;;;;;;5522388;26;20428;-78
2024/05/03 12:33:38;;;;;;;1.30;1.08;;;;;;;;;;5522859;25;20816;-77
2024/05/03 12:36:05;;;;;;;1.35;0.80;;;;;;;;;;5525765;26;20340;-77
2024/05/03 12:38:30;;;;;;;1.15;0.80;;;;;;;;;;5524446;25;20327;-77
2024/05/03 12:40:57;;;;;;;2.38;0.90;;;;;;;;;;5511971;26;20312;-78
2024/05/03 12:43:23;;;;;;;2.25;0.70;;;;;;;;;;5526127;26;20323;-78
2024/05/03 12:45:49;;;;;;;1.15;0.93;;;;;;;;;;5526704;26;20856;-77
2024/05/03 12:48:15;;;;;;;1.70;0.90;;;;;;;;;;5525921;26;20324;-77
2024/05/03 12:50:41;;;;;;;1.58;0.80;;;;;;;;;;5525995;26;20346;-77
2024/05/03 12:53:07;;;;;;;1.00;0.88;;;;;;;;;;5525651;26;21135;-77
2024/05/03 12:55:33;;;;;;;1.65;1.10;;;;;;;;;;5525576;26;20356;-77
2024/05/03 12:57:59;;;;;;;1.60;0.90;;;;;;;;;;5527320;26;20373;-77
2024/05/03 13:00:25;;;;;;;1.10;0.80;;;;;;;;;;5525237;26;20327;-77
2024/05/03 13:02:51;;;;;;;1.17;0.82;;;;;;;;;;5525596;26;20442;-77
2024/05/03 13:05:20;;;;;;;1.27;0.75;;;;;;;;;;5525218;26;20327;-77
2024/05/03 13:07:48;;;;;;;2.47;0.80;;;;;;;;;;5525564;26;20324;-77
2024/05/03 13:10:18;;;;;;;1.92;0.80;;;;;;;;;;5525498;25;20324;-77
2024/05/03 13:12:52;;;;;;;1.00;0.77;;;;;;;;;;5525273;25;20323;-77
2024/05/03 13:15:19;;;;;;;3.20;0.80;;;;;;;;;;5506133;25;20363;-78
2024/05/03 13:17:45;;;;;;;1.90;0.97;;;;;;;;;;5520879;26;20319;-78
2024/05/03 13:20:11;;;;;;;1.52;0.80;;;;;;;;;;5525419;26;20315;-78
2024/05/03 13:22:37;;;;;;;1.23;0.90;;;;;;;;;;5525522;26;20320;-78
2024/05/03 13:25:09;;;;;;;2.85;1.00;;;;;;;;;;5525371;26;21186;-77
2024/05/03 13:27:37;;;;;;;1.60;0.80;;;;;;;;;;5525197;26;20368;-77
2024/05/03 13:30:04;;;;;;;1.73;0.80;;;;;;;;;;5525299;25;20816;-77
2024/05/03 13:32:30;;;;;;;1.90;0.70;;;;;;;;;;5523742;26;20362;-77
2024/05/03 13:34:56;;;;;;;1.70;0.50;;;;;;;;;;5525384;26;20320;-77
2024/05/03 13:37:22;;;;;;;1.65;0.70;;;;;;;;;;5525217;26;20412;-77
2024/05/03 13:39:48;;;;;;;1.23;0.70;;;;;;;;;;5509073;26;20319;-77
2024/05/03 13:42:14;;;;;;;0.60;0.60;;;;;;;;;;5525355;26;20316;-78
2024/05/03 13:44:39;;;;;;;2.70;0.77;;;;;;;;;;5525359;26;20355;-77
2024/05/03 13:47:05;;;;;;;1.77;0.70;;;;;;;;;;5524008;26;20316;-78
2024/05/03 13:49:31;;;;;;;0.73;0.50;;;;;;;;;;5524834;26;20316;-77
2024/05/03 13:51:58;;;;;;;2.03;0.52;;;;;;;;;;5524875;26;20323;-78
2024/05/03 13:54:24;;;;;;;1.00;0.50;;;;;;;;;;5525083;26;20332;-78
2024/05/03 13:56:50;;;;;;;1.40;0.50;;;;;;;;;;5525270;26;20323;-78
2024/05/03 13:59:16;;;;;;;1.30;0.70;;;;;;;;;;5524686;26;20320;-78
2024/05/03 14:01:42;;;;;;;2.28;0.80;;;;;;;;;;5524961;26;20324;-78
2024/05/03 14:04:08;;;;;;;0.77;0.70;;;;;;;;;;5525150;26;20368;-78
2024/05/03 14:06:34;;;;;;;1.20;0.55;;;;;;;;;;5525040;26;20394;-77
2024/05/03 14:09:00;;;;;;;1.20;0.50;;;;;;;;;;5524500;26;20312;-77
2024/05/03 14:11:26;;;;;;;2.20;0.70;;;;;;;;;;5524782;26;20323;-77
2024/05/03 14:13:52;;;;;;;0.60;0.43;;;;;;;;;;5524515;26;20319;-77
2024/05/03 14:16:18;;;;;;;2.22;0.80;;;;;;;;;;5524506;26;20922;-77
2024/05/03 14:18:46;;;;;;;0.88;0.55;;;;;;;;;;5524460;26;20323;-77
2024/05/03 14:21:11;;;;;;;1.70;0.90;;;;;;;;;;5524346;25;20895;-77
2024/05/03 14:23:37;;;;;;;2.03;0.80;;;;;;;;;;5524557;26;20417;-77
2024/05/03 14:26:04;;;;;;;1.10;0.50;;;;;;;;;;5524228;26;20328;-77
2024/05/03 14:28:29;;;;;;;1.30;0.63;;;;;;;;;;5524340;26;20382;-77
2024/05/03 14:30:55;;;;;;;0.75;0.52;;;;;;;;;;5524559;26;20680;-77
2024/05/03 14:33:22;;;;;;;1.10;0.50;;;;;;;;;;5524405;26;20320;-77
2024/05/03 14:35:48;;;;;;;1.05;0.60;;;;;;;;;;5524454;26;20327;-77
2024/05/03 14:38:14;;;;;;;0.70;0.50;;;;;;;;;;5524489;26;20692;-77